sensor_id;sensor_type;location;lat;lon;timestamp;temperature;humidity
4097;DHT22;2062;50.694;7.246;2023-08-21T00:00:42;23.40;52.80
4097;DHT22;2062;50.694;7.246;2023-08-21T00:03:09;23.40;53.00
4097;DHT22;2062;50.694;7.246;2023-08-21T00:05:36;23.40;53.00
4097;DHT22;2062;50.694;7.246;2023-08-21T00:08:03;23.40;53.10
4097;DHT22;2062;50.694;7.246;2023-08-21T00:10:30;23.40;53.10
4097;DHT22;2062;50.694;7.246;2023-08-21T00:12:57;23.30;53.20
4097;DHT22;2062;50.694;7.246;2023-08-21T00:15:25;23.30;53.20
4097;DHT22;2062;50.694;7.246;2023-08-21T00:17:52;23.30;53.50
4097;DHT22;2062;50.694;7.246;2023-08-21T00:20:19;23.30;53.20
4097;DHT22;2062;50.694;7.246;2023-08-21T00:22:45;23.30;53.60
4097;DHT22;2062;50.694;7.246;2023-08-21T00:25:12;23.30;53.60
4097;DHT22;2062;50.694;7.246;2023-08-21T00:27:39;23.30;53.60
4097;DHT22;2062;50.694;7.246;2023-08-21T00:30:07;23.30;53.70
4097;DHT22;2062;50.694;7.246;2023-08-21T00:32:35;23.20;53.70
4097;DHT22;2062;50.694;7.246;2023-08-21T00:35:02;23.20;53.70
4097;DHT22;2062;50.694;7.246;2023-08-21T00:37:29;23.20;53.70
4097;DHT22;2062;50.694;7.246;2023-08-21T00:39:56;23.20;53.90
4097;DHT22;2062;50.694;7.246;2023-08-21T00:42:23;23.20;53.70
4097;DHT22;2062;50.694;7.246;2023-08-21T00:44:50;23.20;54.00
4097;DHT22;2062;50.694;7.246;2023-08-21T00:47:16;23.10;54.20
4097;DHT22;2062;50.694;7.246;2023-08-21T00:49:46;23.10;54.30
4097;DHT22;2062;50.694;7.246;2023-08-21T00:52:14;23.10;54.30
4097;DHT22;2062;50.694;7.246;2023-08-21T00:54:42;23.10;54.20
4097;DHT22;2062;50.694;7.246;2023-08-21T00:57:09;23.10;54.30
4097;DHT22;2062;50.694;7.246;2023-08-21T00:59:36;23.00;54.40
4097;DHT22;2062;50.694;7.246;2023-08-21T01:02:04;23.00;54.60
4097;DHT22;2062;50.694;7.246;2023-08-21T01:04:31;23.00;54.60
4097;DHT22;2062;50.694;7.246;2023-08-21T01:06:59;23.00;54.50
4097;DHT22;2062;50.694;7.246;2023-08-21T01:09:31;22.90;54.60
4097;DHT22;2062;50.694;7.246;2023-08-21T01:12:06;22.90;54.70
4097;DHT22;2062;50.694;7.246;2023-08-21T01:14:48;22.90;55.10
4097;DHT22;2062;50.694;7.246;2023-08-21T01:17:18;22.90;55.50
4097;DHT22;2062;50.694;7.246;2023-08-21T01:19:48;22.90;55.30
4097;DHT22;2062;50.694;7.246;2023-08-21T01:22:17;22.80;55.00
4097;DHT22;2062;50.694;7.246;2023-08-21T01:24:45;22.80;54.90
4097;DHT22;2062;50.694;7.246;2023-08-21T01:27:13;22.80;55.20
4097;DHT22;2062;50.694;7.246;2023-08-21T01:29:41;22.70;55.30
4097;DHT22;2062;50.694;7.246;2023-08-21T01:32:13;22.70;55.30
4097;DHT22;2062;50.694;7.246;2023-08-21T01:34:41;22.70;55.30
4097;DHT22;2062;50.694;7.246;2023-08-21T01:37:08;22.70;55.60
4097;DHT22;2062;50.694;7.246;2023-08-21T01:39:35;22.70;56.00
4097;DHT22;2062;50.694;7.246;2023-08-21T01:42:04;22.70;55.60
4097;DHT22;2062;50.694;7.246;2023-08-21T01:44:31;22.70;55.70
4097;DHT22;2062;50.694;7.246;2023-08-21T01:46:57;22.60;55.90
4097;DHT22;2062;50.694;7.246;2023-08-21T01:49:24;22.60;55.90
4097;DHT22;2062;50.694;7.246;2023-08-21T01:51:51;22.60;55.70
4097;DHT22;2062;50.694;7.246;2023-08-21T01:54:18;22.60;55.80
4097;DHT22;2062;50.694;7.246;2023-08-21T01:56:44;22.60;55.60
4097;DHT22;2062;50.694;7.246;2023-08-21T01:59:12;22.50;55.90
4097;DHT22;2062;50.694;7.246;2023-08-21T02:01:39;22.50;55.90
4097;DHT22;2062;50.694;7.246;2023-08-21T02:04:06;22.50;55.90
4097;DHT22;2062;50.694;7.246;2023-08-21T02:06:33;22.50;56.10
4097;DHT22;2062;50.694;7.246;2023-08-21T02:08:59;22.50;56.00
4097;DHT22;2062;50.694;7.246;2023-08-21T02:11:26;22.40;55.90
4097;DHT22;2062;50.694;7.246;2023-08-21T02:13:53;22.40;55.90
4097;DHT22;2062;50.694;7.246;2023-08-21T02:16:21;22.40;56.10
4097;DHT22;2062;50.694;7.246;2023-08-21T02:18:48;22.30;56.00
4097;DHT22;2062;50.694;7.246;2023-08-21T02:21:15;22.30;56.10
4097;DHT22;2062;50.694;7.246;2023-08-21T02:23:41;22.30;56.30
4097;DHT22;2062;50.694;7.246;2023-08-21T02:26:08;22.30;56.20
4097;DHT22;2062;50.694;7.246;2023-08-21T02:28:35;22.30;56.50
4097;DHT22;2062;50.694;7.246;2023-08-21T02:31:02;22.30;56.40
4097;DHT22;2062;50.694;7.246;2023-08-21T02:33:30;22.20;56.50
4097;DHT22;2062;50.694;7.246;2023-08-21T02:35:57;22.20;56.90
4097;DHT22;2062;50.694;7.246;2023-08-21T02:38:24;22.20;56.90
4097;DHT22;2062;50.694;7.246;2023-08-21T02:40:50;22.10;56.90
4097;DHT22;2062;50.694;7.246;2023-08-21T02:43:17;22.10;57.00
4097;DHT22;2062;50.694;7.246;2023-08-21T02:45:44;22.10;57.00
4097;DHT22;2062;50.694;7.246;2023-08-21T02:48:11;22.10;57.20
4097;DHT22;2062;50.694;7.246;2023-08-21T02:50:39;22.10;56.90
4097;DHT22;2062;50.694;7.246;2023-08-21T02:53:07;22.10;56.90
4097;DHT22;2062;50.694;7.246;2023-08-21T02:55:34;22.00;56.90
4097;DHT22;2062;50.694;7.246;2023-08-21T02:58:00;22.00;56.80
4097;DHT22;2062;50.694;7.246;2023-08-21T03:00:28;22.00;56.90
4097;DHT22;2062;50.694;7.246;2023-08-21T03:02:55;22.00;57.30
4097;DHT22;2062;50.694;7.246;2023-08-21T03:05:22;22.00;57.30
4097;DHT22;2062;50.694;7.246;2023-08-21T03:07:50;22.00;57.40
4097;DHT22;2062;50.694;7.246;2023-08-21T03:10:18;22.00;57.80
4097;DHT22;2062;50.694;7.246;2023-08-21T03:12:44;21.90;57.50
4097;DHT22;2062;50.694;7.246;2023-08-21T03:15:11;22.00;57.50
4097;DHT22;2062;50.694;7.246;2023-08-21T03:17:38;22.00;57.60
4097;DHT22;2062;50.694;7.246;2023-08-21T03:20:06;22.00;57.80
4097;DHT22;2062;50.694;7.246;2023-08-21T03:22:32;21.90;57.60
4097;DHT22;2062;50.694;7.246;2023-08-21T03:25:01;22.00;57.70
4097;DHT22;2062;50.694;7.246;2023-08-21T03:27:28;21.90;57.50
4097;DHT22;2062;50.694;7.246;2023-08-21T03:29:55;21.90;57.60
4097;DHT22;2062;50.694;7.246;2023-08-21T03:32:21;21.80;57.50
4097;DHT22;2062;50.694;7.246;2023-08-21T03:34:48;21.80;57.60
4097;DHT22;2062;50.694;7.246;2023-08-21T03:37:15;21.80;57.90
4097;DHT22;2062;50.694;7.246;2023-08-21T03:39:42;21.80;58.00
4097;DHT22;2062;50.694;7.246;2023-08-21T03:42:10;21.80;58.20
4097;DHT22;2062;50.694;7.246;2023-08-21T03:44:37;21.80;58.00
4097;DHT22;2062;50.694;7.246;2023-08-21T03:47:05;21.80;58.00
4097;DHT22;2062;50.694;7.246;2023-08-21T03:49:31;21.70;57.90
4097;DHT22;2062;50.694;7.246;2023-08-21T03:51:58;21.80;58.00
4097;DHT22;2062;50.694;7.246;2023-08-21T03:54:25;21.70;58.20
4097;DHT22;2062;50.694;7.246;2023-08-21T03:56:52;21.70;58.10
4097;DHT22;2062;50.694;7.246;2023-08-21T03:59:20;21.70;58.30
4097;DHT22;2062;50.694;7.246;2023-08-21T04:01:48;21.70;58.20
4097;DHT22;2062;50.694;7.246;2023-08-21T04:04:15;21.70;58.40
4097;DHT22;2062;50.694;7.246;2023-08-21T04:06:41;21.60;58.30
4097;DHT22;2062;50.694;7.246;2023-08-21T04:09:08;21.60;58.40
4097;DHT22;2062;50.694;7.246;2023-08-21T04:11:36;21.60;58.20
4097;DHT22;2062;50.694;7.246;2023-08-21T04:14:03;21.60;58.40
4097;DHT22;2062;50.694;7.246;2023-08-21T04:16:31;21.60;58.30
4097;DHT22;2062;50.694;7.246;2023-08-21T04:18:58;21.60;58.70
4097;DHT22;2062;50.694;7.246;2023-08-21T04:21:25;21.70;58.80
4097;DHT22;2062;50.694;7.246;2023-08-21T04:23:51;21.60;58.90
4097;DHT22;2062;50.694;7.246;2023-08-21T04:26:18;21.60;59.30
4097;DHT22;2062;50.694;7.246;2023-08-21T04:28:47;21.60;58.80
4097;DHT22;2062;50.694;7.246;2023-08-21T04:31:13;21.60;59.30
4097;DHT22;2062;50.694;7.246;2023-08-21T04:33:41;21.50;59.40
4097;DHT22;2062;50.694;7.246;2023-08-21T04:36:14;21.50;59.70
4097;DHT22;2062;50.694;7.246;2023-08-21T04:38:41;21.50;59.80
4097;DHT22;2062;50.694;7.246;2023-08-21T04:41:08;21.50;59.80
4097;DHT22;2062;50.694;7.246;2023-08-21T04:43:35;21.40;59.70
4097;DHT22;2062;50.694;7.246;2023-08-21T04:46:02;21.40;59.80
4097;DHT22;2062;50.694;7.246;2023-08-21T04:48:30;21.40;59.80
4097;DHT22;2062;50.694;7.246;2023-08-21T04:50:58;21.40;60.00
4097;DHT22;2062;50.694;7.246;2023-08-21T04:53:25;21.40;59.70
4097;DHT22;2062;50.694;7.246;2023-08-21T04:55:52;21.40;60.10
4097;DHT22;2062;50.694;7.246;2023-08-21T04:58:19;21.30;60.20
4097;DHT22;2062;50.694;7.246;2023-08-21T05:00:45;21.30;60.30
4097;DHT22;2062;50.694;7.246;2023-08-21T05:03:12;21.30;60.50
4097;DHT22;2062;50.694;7.246;2023-08-21T05:05:39;21.30;60.60
4097;DHT22;2062;50.694;7.246;2023-08-21T05:08:07;21.30;60.50
4097;DHT22;2062;50.694;7.246;2023-08-21T05:10:34;21.30;60.30
4097;DHT22;2062;50.694;7.246;2023-08-21T05:13:01;21.30;60.30
4097;DHT22;2062;50.694;7.246;2023-08-21T05:15:27;21.30;60.20
4097;DHT22;2062;50.694;7.246;2023-08-21T05:17:54;21.30;60.40
4097;DHT22;2062;50.694;7.246;2023-08-21T05:20:21;21.30;60.30
4097;DHT22;2062;50.694;7.246;2023-08-21T05:22:48;21.30;60.60
4097;DHT22;2062;50.694;7.246;2023-08-21T05:25:16;21.30;61.30
4097;DHT22;2062;50.694;7.246;2023-08-21T05:27:43;21.30;60.30
4097;DHT22;2062;50.694;7.246;2023-08-21T05:30:10;21.40;60.40
4097;DHT22;2062;50.694;7.246;2023-08-21T05:32:37;21.40;60.00
4097;DHT22;2062;50.694;7.246;2023-08-21T05:35:05;21.40;59.90
4097;DHT22;2062;50.694;7.246;2023-08-21T05:37:33;21.40;60.00
4097;DHT22;2062;50.694;7.246;2023-08-21T05:40:00;21.40;60.00
4097;DHT22;2062;50.694;7.246;2023-08-21T05:42:30;21.40;60.20
4097;DHT22;2062;50.694;7.246;2023-08-21T05:44:57;21.50;60.20
4097;DHT22;2062;50.694;7.246;2023-08-21T05:47:24;21.50;60.30
4097;DHT22;2062;50.694;7.246;2023-08-21T05:49:52;21.50;60.20
4097;DHT22;2062;50.694;7.246;2023-08-21T05:52:19;21.60;60.30
4097;DHT22;2062;50.694;7.246;2023-08-21T05:54:46;21.60;60.30
4097;DHT22;2062;50.694;7.246;2023-08-21T05:57:13;21.60;60.50
4097;DHT22;2062;50.694;7.246;2023-08-21T05:59:45;21.60;61.00
4097;DHT22;2062;50.694;7.246;2023-08-21T06:02:12;21.70;61.10
4097;DHT22;2062;50.694;7.246;2023-08-21T06:04:40;21.70;61.60
4097;DHT22;2062;50.694;7.246;2023-08-21T06:07:07;21.80;61.70
4097;DHT22;2062;50.694;7.246;2023-08-21T06:09:34;21.80;61.60
4097;DHT22;2062;50.694;7.246;2023-08-21T06:12:02;21.80;62.10
4097;DHT22;2062;50.694;7.246;2023-08-21T06:14:29;21.90;62.30
4097;DHT22;2062;50.694;7.246;2023-08-21T06:16:58;21.90;62.50
4097;DHT22;2062;50.694;7.246;2023-08-21T06:19:25;22.00;62.80
4097;DHT22;2062;50.694;7.246;2023-08-21T06:21:52;22.10;62.80
4097;DHT22;2062;50.694;7.246;2023-08-21T06:24:19;22.10;62.90
4097;DHT22;2062;50.694;7.246;2023-08-21T06:26:45;22.20;63.00
4097;DHT22;2062;50.694;7.246;2023-08-21T06:29:12;22.30;63.30
4097;DHT22;2062;50.694;7.246;2023-08-21T06:31:39;22.30;63.40
4097;DHT22;2062;50.694;7.246;2023-08-21T06:34:07;22.50;63.40
4097;DHT22;2062;50.694;7.246;2023-08-21T06:36:34;22.60;63.70
4097;DHT22;2062;50.694;7.246;2023-08-21T06:39:01;22.60;63.50
4097;DHT22;2062;50.694;7.246;2023-08-21T06:41:29;22.70;63.40
4097;DHT22;2062;50.694;7.246;2023-08-21T06:43:56;22.80;63.30
4097;DHT22;2062;50.694;7.246;2023-08-21T06:46:23;22.90;63.40
4097;DHT22;2062;50.694;7.246;2023-08-21T06:48:50;23.00;63.40
4097;DHT22;2062;50.694;7.246;2023-08-21T06:51:18;23.00;63.30
4097;DHT22;2062;50.694;7.246;2023-08-21T06:53:45;23.10;63.40
4097;DHT22;2062;50.694;7.246;2023-08-21T06:56:12;23.20;63.30
4097;DHT22;2062;50.694;7.246;2023-08-21T06:58:39;23.30;63.30
4097;DHT22;2062;50.694;7.246;2023-08-21T07:01:05;23.40;63.30
4097;DHT22;2062;50.694;7.246;2023-08-21T07:03:32;23.50;63.40
4097;DHT22;2062;50.694;7.246;2023-08-21T07:05:59;23.60;63.30
4097;DHT22;2062;50.694;7.246;2023-08-21T07:08:28;23.70;63.20
4097;DHT22;2062;50.694;7.246;2023-08-21T07:10:55;23.80;62.90
4097;DHT22;2062;50.694;7.246;2023-08-21T07:13:22;24.00;62.80
4097;DHT22;2062;50.694;7.246;2023-08-21T07:15:49;24.10;62.70
4097;DHT22;2062;50.694;7.246;2023-08-21T07:18:18;24.20;62.40
4097;DHT22;2062;50.694;7.246;2023-08-21T07:20:45;24.30;62.20
4097;DHT22;2062;50.694;7.246;2023-08-21T07:23:12;24.50;62.20
4097;DHT22;2062;50.694;7.246;2023-08-21T07:25:40;24.60;62.10
4097;DHT22;2062;50.694;7.246;2023-08-21T07:28:07;24.80;61.90
4097;DHT22;2062;50.694;7.246;2023-08-21T07:30:36;24.90;61.50
4097;DHT22;2062;50.694;7.246;2023-08-21T07:33:04;25.10;61.10
4097;DHT22;2062;50.694;7.246;2023-08-21T07:35:31;25.30;60.60
4097;DHT22;2062;50.694;7.246;2023-08-21T07:37:58;25.50;60.00
4097;DHT22;2062;50.694;7.246;2023-08-21T07:40:25;25.70;59.50
4097;DHT22;2062;50.694;7.246;2023-08-21T07:42:54;25.90;59.20
4097;DHT22;2062;50.694;7.246;2023-08-21T07:45:20;26.10;59.20
4097;DHT22;2062;50.694;7.246;2023-08-21T07:47:47;26.30;58.80
4097;DHT22;2062;50.694;7.246;2023-08-21T07:50:14;26.50;58.20
4097;DHT22;2062;50.694;7.246;2023-08-21T07:52:42;26.70;57.60
4097;DHT22;2062;50.694;7.246;2023-08-21T07:55:09;26.90;56.80
4097;DHT22;2062;50.694;7.246;2023-08-21T07:57:35;27.10;57.20
4097;DHT22;2062;50.694;7.246;2023-08-21T08:00:05;27.30;56.40
4097;DHT22;2062;50.694;7.246;2023-08-21T08:02:34;27.40;56.00
4097;DHT22;2062;50.694;7.246;2023-08-21T08:05:01;27.60;55.80
4097;DHT22;2062;50.694;7.246;2023-08-21T08:07:28;27.80;55.50
4097;DHT22;2062;50.694;7.246;2023-08-21T08:09:55;28.00;55.40
4097;DHT22;2062;50.694;7.246;2023-08-21T08:12:22;28.20;55.30
4097;DHT22;2062;50.694;7.246;2023-08-21T08:14:48;28.40;54.10
4097;DHT22;2062;50.694;7.246;2023-08-21T08:17:17;28.60;54.20
4097;DHT22;2062;50.694;7.246;2023-08-21T08:19:43;28.80;53.70
4097;DHT22;2062;50.694;7.246;2023-08-21T08:22:10;29.00;53.50
4097;DHT22;2062;50.694;7.246;2023-08-21T08:24:37;29.10;52.50
4097;DHT22;2062;50.694;7.246;2023-08-21T08:27:04;29.30;52.70
4097;DHT22;2062;50.694;7.246;2023-08-21T08:29:32;29.50;51.40
4097;DHT22;2062;50.694;7.246;2023-08-21T08:31:59;29.60;51.10
4097;DHT22;2062;50.694;7.246;2023-08-21T08:34:27;29.70;50.40
4097;DHT22;2062;50.694;7.246;2023-08-21T08:36:54;29.80;49.90
4097;DHT22;2062;50.694;7.246;2023-08-21T08:39:20;29.90;49.60
4097;DHT22;2062;50.694;7.246;2023-08-21T08:41:51;30.00;49.30
4097;DHT22;2062;50.694;7.246;2023-08-21T08:44:21;30.10;49.20
4097;DHT22;2062;50.694;7.246;2023-08-21T08:46:51;30.20;48.60
4097;DHT22;2062;50.694;7.246;2023-08-21T08:49:18;30.30;48.30
4097;DHT22;2062;50.694;7.246;2023-08-21T08:51:49;30.40;47.90
4097;DHT22;2062;50.694;7.246;2023-08-21T08:54:16;30.50;47.70
4097;DHT22;2062;50.694;7.246;2023-08-21T08:56:43;30.60;46.40
4097;DHT22;2062;50.694;7.246;2023-08-21T08:59:10;30.60;46.50
4097;DHT22;2062;50.694;7.246;2023-08-21T09:01:38;30.70;46.30
4097;DHT22;2062;50.694;7.246;2023-08-21T09:04:05;30.80;46.00
4097;DHT22;2062;50.694;7.246;2023-08-21T09:06:32;30.90;45.90
4097;DHT22;2062;50.694;7.246;2023-08-21T09:09:00;31.00;46.60
4097;DHT22;2062;50.694;7.246;2023-08-21T09:11:27;31.00;46.50
4097;DHT22;2062;50.694;7.246;2023-08-21T09:13:55;31.10;47.00
4097;DHT22;2062;50.694;7.246;2023-08-21T09:16:23;31.30;47.20
4097;DHT22;2062;50.694;7.246;2023-08-21T09:18:52;31.40;45.80
4097;DHT22;2062;50.694;7.246;2023-08-21T09:21:20;31.50;46.60
4097;DHT22;2062;50.694;7.246;2023-08-21T09:23:48;31.70;45.90
4097;DHT22;2062;50.694;7.246;2023-08-21T09:26:20;31.80;45.00
4097;DHT22;2062;50.694;7.246;2023-08-21T09:28:47;31.90;45.80
4097;DHT22;2062;50.694;7.246;2023-08-21T09:31:14;32.00;45.30
4097;DHT22;2062;50.694;7.246;2023-08-21T09:33:42;32.00;43.00
4097;DHT22;2062;50.694;7.246;2023-08-21T09:36:09;32.10;43.20
4097;DHT22;2062;50.694;7.246;2023-08-21T09:38:38;32.10;43.00
4097;DHT22;2062;50.694;7.246;2023-08-21T09:41:06;32.20;43.20
4097;DHT22;2062;50.694;7.246;2023-08-21T09:43:41;32.20;43.10
4097;DHT22;2062;50.694;7.246;2023-08-21T09:46:08;32.30;43.00
4097;DHT22;2062;50.694;7.246;2023-08-21T09:48:35;32.30;43.00
4097;DHT22;2062;50.694;7.246;2023-08-21T09:51:03;32.40;42.60
4097;DHT22;2062;50.694;7.246;2023-08-21T09:53:30;32.40;42.40
4097;DHT22;2062;50.694;7.246;2023-08-21T09:56:00;32.40;42.20
4097;DHT22;2062;50.694;7.246;2023-08-21T09:58:29;32.40;42.30
4097;DHT22;2062;50.694;7.246;2023-08-21T10:00:58;32.50;41.90
4097;DHT22;2062;50.694;7.246;2023-08-21T10:03:26;32.60;42.00
4097;DHT22;2062;50.694;7.246;2023-08-21T10:05:55;32.60;41.80
4097;DHT22;2062;50.694;7.246;2023-08-21T10:08:25;32.60;41.30
4097;DHT22;2062;50.694;7.246;2023-08-21T10:10:52;32.60;41.60
4097;DHT22;2062;50.694;7.246;2023-08-21T10:13:19;32.70;41.70
4097;DHT22;2062;50.694;7.246;2023-08-21T10:15:46;32.60;40.30
4097;DHT22;2062;50.694;7.246;2023-08-21T10:18:22;32.70;40.10
4097;DHT22;2062;50.694;7.246;2023-08-21T10:20:50;32.60;40.60
4097;DHT22;2062;50.694;7.246;2023-08-21T10:23:28;32.60;40.70
4097;DHT22;2062;50.694;7.246;2023-08-21T10:25:56;32.60;40.90
4097;DHT22;2062;50.694;7.246;2023-08-21T10:28:23;32.60;41.60
4097;DHT22;2062;50.694;7.246;2023-08-21T10:30:50;32.70;41.80
4097;DHT22;2062;50.694;7.246;2023-08-21T10:33:17;32.70;41.90
4097;DHT22;2062;50.694;7.246;2023-08-21T10:35:46;32.80;40.70
4097;DHT22;2062;50.694;7.246;2023-08-21T10:38:14;32.80;41.50
4097;DHT22;2062;50.694;7.246;2023-08-21T10:41:06;32.90;41.40
4097;DHT22;2062;50.694;7.246;2023-08-21T10:43:39;33.00;41.40
4097;DHT22;2062;50.694;7.246;2023-08-21T10:46:06;33.00;40.60
4097;DHT22;2062;50.694;7.246;2023-08-21T10:48:34;33.10;40.80
4097;DHT22;2062;50.694;7.246;2023-08-21T10:51:05;33.10;40.00
4097;DHT22;2062;50.694;7.246;2023-08-21T10:53:33;33.00;39.90
4097;DHT22;2062;50.694;7.246;2023-08-21T10:56:02;33.00;39.30
4097;DHT22;2062;50.694;7.246;2023-08-21T10:58:33;33.00;40.10
4097;DHT22;2062;50.694;7.246;2023-08-21T11:01:00;32.90;40.10
4097;DHT22;2062;50.694;7.246;2023-08-21T11:03:29;32.90;40.20
4097;DHT22;2062;50.694;7.246;2023-08-21T11:06:04;32.90;40.40
4097;DHT22;2062;50.694;7.246;2023-08-21T11:08:32;32.90;38.80
4097;DHT22;2062;50.694;7.246;2023-08-21T11:10:59;32.90;39.30
4097;DHT22;2062;50.694;7.246;2023-08-21T11:13:26;32.90;40.20
4097;DHT22;2062;50.694;7.246;2023-08-21T11:16:00;32.90;39.70
4097;DHT22;2062;50.694;7.246;2023-08-21T11:18:31;32.90;39.10
4097;DHT22;2062;50.694;7.246;2023-08-21T11:21:06;32.90;39.50
4097;DHT22;2062;50.694;7.246;2023-08-21T11:23:34;33.00;39.50
4097;DHT22;2062;50.694;7.246;2023-08-21T11:26:02;33.00;40.30
4097;DHT22;2062;50.694;7.246;2023-08-21T11:28:30;33.00;39.10
4097;DHT22;2062;50.694;7.246;2023-08-21T11:30:57;33.00;39.20
4097;DHT22;2062;50.694;7.246;2023-08-21T11:33:25;33.00;39.30
4097;DHT22;2062;50.694;7.246;2023-08-21T11:35:53;33.00;38.90
4097;DHT22;2062;50.694;7.246;2023-08-21T11:38:22;33.00;39.20
4097;DHT22;2062;50.694;7.246;2023-08-21T11:40:58;32.90;38.80
4097;DHT22;2062;50.694;7.246;2023-08-21T11:43:35;33.00;39.40
4097;DHT22;2062;50.694;7.246;2023-08-21T11:46:02;33.00;38.90
4097;DHT22;2062;50.694;7.246;2023-08-21T11:48:30;32.90;38.50
4097;DHT22;2062;50.694;7.246;2023-08-21T11:50:56;32.90;38.60
4097;DHT22;2062;50.694;7.246;2023-08-21T11:53:32;32.90;38.40
4097;DHT22;2062;50.694;7.246;2023-08-21T11:56:00;32.90;38.70
4097;DHT22;2062;50.694;7.246;2023-08-21T11:58:28;32.90;39.10
4097;DHT22;2062;50.694;7.246;2023-08-21T12:00:55;32.90;38.90
4097;DHT22;2062;50.694;7.246;2023-08-21T12:03:29;32.90;38.60
4097;DHT22;2062;50.694;7.246;2023-08-21T12:05:56;32.90;38.90
4097;DHT22;2062;50.694;7.246;2023-08-21T12:08:23;33.00;39.60
4097;DHT22;2062;50.694;7.246;2023-08-21T12:10:51;33.00;38.90
4097;DHT22;2062;50.694;7.246;2023-08-21T12:13:18;33.00;38.50
4097;DHT22;2062;50.694;7.246;2023-08-21T12:15:45;33.00;38.30
4097;DHT22;2062;50.694;7.246;2023-08-21T12:18:12;33.00;38.80
4097;DHT22;2062;50.694;7.246;2023-08-21T12:20:39;33.10;39.60
4097;DHT22;2062;50.694;7.246;2023-08-21T12:23:05;33.20;38.50
4097;DHT22;2062;50.694;7.246;2023-08-21T12:25:32;33.20;38.40
4097;DHT22;2062;50.694;7.246;2023-08-21T12:28:00;33.20;38.20
4097;DHT22;2062;50.694;7.246;2023-08-21T12:30:27;33.20;38.40
4097;DHT22;2062;50.694;7.246;2023-08-21T12:32:54;33.30;38.40
4097;DHT22;2062;50.694;7.246;2023-08-21T12:35:21;33.30;38.60
4097;DHT22;2062;50.694;7.246;2023-08-21T12:37:47;33.40;38.00
4097;DHT22;2062;50.694;7.246;2023-08-21T12:40:14;33.40;38.40
4097;DHT22;2062;50.694;7.246;2023-08-21T12:42:41;33.40;38.20
4097;DHT22;2062;50.694;7.246;2023-08-21T12:45:10;33.50;37.90
4097;DHT22;2062;50.694;7.246;2023-08-21T12:47:37;33.50;37.50
4097;DHT22;2062;50.694;7.246;2023-08-21T12:50:05;33.50;37.90
4097;DHT22;2062;50.694;7.246;2023-08-21T12:52:32;33.50;36.90
4097;DHT22;2062;50.694;7.246;2023-08-21T12:54:59;33.60;37.60
4097;DHT22;2062;50.694;7.246;2023-08-21T12:57:29;33.60;36.90
4097;DHT22;2062;50.694;7.246;2023-08-21T12:59:56;33.60;37.10
4097;DHT22;2062;50.694;7.246;2023-08-21T13:02:24;33.60;36.80
4097;DHT22;2062;50.694;7.246;2023-08-21T13:04:52;33.60;37.60
4097;DHT22;2062;50.694;7.246;2023-08-21T13:07:19;33.60;37.50
4097;DHT22;2062;50.694;7.246;2023-08-21T13:09:46;33.70;37.70
4097;DHT22;2062;50.694;7.246;2023-08-21T13:12:13;33.70;37.50
4097;DHT22;2062;50.694;7.246;2023-08-21T13:14:39;33.80;37.60
4097;DHT22;2062;50.694;7.246;2023-08-21T13:17:07;33.90;37.60
4097;DHT22;2062;50.694;7.246;2023-08-21T13:19:35;34.00;38.00
4097;DHT22;2062;50.694;7.246;2023-08-21T13:22:02;34.10;36.90
4097;DHT22;2062;50.694;7.246;2023-08-21T13:24:28;34.10;37.00
4097;DHT22;2062;50.694;7.246;2023-08-21T13:26:56;34.10;37.00
4097;DHT22;2062;50.694;7.246;2023-08-21T13:29:22;34.10;36.80
4097;DHT22;2062;50.694;7.246;2023-08-21T13:31:49;34.10;36.20
4097;DHT22;2062;50.694;7.246;2023-08-21T13:34:16;34.10;36.50
4097;DHT22;2062;50.694;7.246;2023-08-21T13:36:44;34.00;36.80
4097;DHT22;2062;50.694;7.246;2023-08-21T13:39:11;33.90;35.90
4097;DHT22;2062;50.694;7.246;2023-08-21T13:41:41;33.90;35.80
4097;DHT22;2062;50.694;7.246;2023-08-21T13:44:07;33.70;35.00
4097;DHT22;2062;50.694;7.246;2023-08-21T13:46:34;33.70;35.70
4097;DHT22;2062;50.694;7.246;2023-08-21T13:49:01;33.60;35.90
4097;DHT22;2062;50.694;7.246;2023-08-21T13:51:28;33.60;36.20
4097;DHT22;2062;50.694;7.246;2023-08-21T13:53:56;33.60;36.10
4097;DHT22;2062;50.694;7.246;2023-08-21T13:56:23;33.60;36.80
4097;DHT22;2062;50.694;7.246;2023-08-21T13:58:50;33.50;35.90
4097;DHT22;2062;50.694;7.246;2023-08-21T14:01:17;33.50;36.30
4097;DHT22;2062;50.694;7.246;2023-08-21T14:03:43;33.50;36.40
4097;DHT22;2062;50.694;7.246;2023-08-21T14:06:11;33.50;36.60
4097;DHT22;2062;50.694;7.246;2023-08-21T14:08:38;33.50;36.40
4097;DHT22;2062;50.694;7.246;2023-08-21T14:11:06;33.40;35.60
4097;DHT22;2062;50.694;7.246;2023-08-21T14:13:33;33.30;35.50
4097;DHT22;2062;50.694;7.246;2023-08-21T14:16:00;33.20;35.70
4097;DHT22;2062;50.694;7.246;2023-08-21T14:18:27;33.20;36.30
4097;DHT22;2062;50.694;7.246;2023-08-21T14:20:54;33.00;35.80
4097;DHT22;2062;50.694;7.246;2023-08-21T14:23:20;32.90;35.10
4097;DHT22;2062;50.694;7.246;2023-08-21T14:25:47;32.90;35.20
4097;DHT22;2062;50.694;7.246;2023-08-21T14:28:16;32.70;35.00
4097;DHT22;2062;50.694;7.246;2023-08-21T14:30:42;32.60;35.40
4097;DHT22;2062;50.694;7.246;2023-08-21T14:33:10;32.50;35.60
4097;DHT22;2062;50.694;7.246;2023-08-21T14:35:37;32.40;35.70
4097;DHT22;2062;50.694;7.246;2023-08-21T14:38:04;32.30;35.80
4097;DHT22;2062;50.694;7.246;2023-08-21T14:40:31;32.20;36.40
4097;DHT22;2062;50.694;7.246;2023-08-21T14:42:58;32.20;36.70
4097;DHT22;2062;50.694;7.246;2023-08-21T14:45:26;32.20;36.60
4097;DHT22;2062;50.694;7.246;2023-08-21T14:47:53;32.10;36.60
4097;DHT22;2062;50.694;7.246;2023-08-21T14:50:20;32.10;36.30
4097;DHT22;2062;50.694;7.246;2023-08-21T14:52:47;32.10;36.30
4097;DHT22;2062;50.694;7.246;2023-08-21T14:55:14;32.10;36.40
4097;DHT22;2062;50.694;7.246;2023-08-21T14:57:41;32.10;36.60
4097;DHT22;2062;50.694;7.246;2023-08-21T15:00:09;32.20;36.20
4097;DHT22;2062;50.694;7.246;2023-08-21T15:02:37;32.10;35.90
4097;DHT22;2062;50.694;7.246;2023-08-21T15:05:05;32.20;36.10
4097;DHT22;2062;50.694;7.246;2023-08-21T15:07:31;32.20;35.90
4097;DHT22;2062;50.694;7.246;2023-08-21T15:09:58;32.20;35.60
4097;DHT22;2062;50.694;7.246;2023-08-21T15:12:25;32.10;35.80
4097;DHT22;2062;50.694;7.246;2023-08-21T15:14:52;32.20;35.90
4097;DHT22;2062;50.694;7.246;2023-08-21T15:17:19;32.10;36.30
4097;DHT22;2062;50.694;7.246;2023-08-21T15:19:47;32.10;36.10
4097;DHT22;2062;50.694;7.246;2023-08-21T15:22:15;32.00;35.60
4097;DHT22;2062;50.694;7.246;2023-08-21T15:24:41;32.00;35.70
4097;DHT22;2062;50.694;7.246;2023-08-21T15:27:08;31.90;35.00
4097;DHT22;2062;50.694;7.246;2023-08-21T15:29:35;31.90;34.80
4097;DHT22;2062;50.694;7.246;2023-08-21T15:32:02;31.80;35.00
4097;DHT22;2062;50.694;7.246;2023-08-21T15:34:29;31.70;34.80
4097;DHT22;2062;50.694;7.246;2023-08-21T15:36:57;31.60;34.90
4097;DHT22;2062;50.694;7.246;2023-08-21T15:39:24;31.60;35.30
4097;DHT22;2062;50.694;7.246;2023-08-21T15:41:51;31.50;35.20
4097;DHT22;2062;50.694;7.246;2023-08-21T15:44:18;31.50;35.50
4097;DHT22;2062;50.694;7.246;2023-08-21T15:46:44;31.40;35.60
4097;DHT22;2062;50.694;7.246;2023-08-21T15:49:11;31.40;36.50
4097;DHT22;2062;50.694;7.246;2023-08-21T15:51:38;31.50;36.10
4097;DHT22;2062;50.694;7.246;2023-08-21T15:54:07;31.50;36.20
4097;DHT22;2062;50.694;7.246;2023-08-21T15:56:34;31.50;36.50
4097;DHT22;2062;50.694;7.246;2023-08-21T15:59:01;31.60;36.20
4097;DHT22;2062;50.694;7.246;2023-08-21T16:01:28;31.60;35.80
4097;DHT22;2062;50.694;7.246;2023-08-21T16:03:54;31.60;35.70